Meera — V2FD7 — position and weather

sailwx.info

Track history (hours):
 
Tides and Currents Weather Stations Pressure Air Temp Water Temp Dewpoint Dewpoint Depression Visibility Wind Speed Wind Dir Waves Ship Positions

Meera

Last reported at 2018-Feb-22 14:58 UTC. Time now 2018-Feb-22 15:20 UTC.
Position N 53°32' E 009°57'.

Length 140 m; draft 7.3 m.

Type: Ship (hazmat cat A). MMSI: 305643000.

Date/timePositionNaut miles runAvg speedWind from/ knotsBaromVisibWave heightAir tempDewpointWater temp
2018-Feb-22 14:58N 53°32' E 009°57'0 0.0
2018-Feb-22 14:28N 53°32' E 009°57'0 0.0
2018-Feb-22 14:00N 53°32' E 009°57'1 1.3
2018-Feb-22 13:31N 53°32' E 009°56'2 3.2
2018-Feb-22 12:58N 53°32' E 009°54'0 0.0
2018-Feb-22 12:28N 53°32' E 009°54'0 0.0
2018-Feb-22 11:58N 53°32' E 009°54'0 0.0
2018-Feb-22 11:28N 53°32' E 009°54'0 0.0
2018-Feb-22 10:58N 53°32' E 009°54'0 0.0
2018-Feb-22 10:28N 53°32' E 009°54'0 0.0
2018-Feb-22 09:58N 53°32' E 009°54'0 0.0
2018-Feb-22 09:28N 53°32' E 009°54'0 0.0
2018-Feb-22 08:58N 53°32' E 009°54'0 0.0
2018-Feb-22 08:28N 53°32' E 009°54'0 0.0
2018-Feb-22 07:58N 53°32' E 009°54'0 0.0
2018-Feb-22 07:28N 53°32' E 009°54'0 0.0
2018-Feb-22 06:58N 53°32' E 009°54'0 0.0
2018-Feb-22 06:28N 53°32' E 009°54'0 0.0
2018-Feb-22 05:58N 53°32' E 009°54'0 0.0
2018-Feb-22 05:28N 53°32' E 009°54'0 0.0
2018-Feb-22 04:58N 53°32' E 009°54'0 0.0
2018-Feb-22 04:28N 53°32' E 009°54'0 0.0
2018-Feb-22 03:58N 53°32' E 009°54'0 0.0
2018-Feb-22 03:28N 53°32' E 009°54'0 0.0
2018-Feb-22 02:58N 53°32' E 009°54'0 0.0
2018-Feb-22 02:28N 53°32' E 009°54'0 0.0
2018-Feb-22 01:59N 53°32' E 009°54'0 0.0
2018-Feb-22 01:30N 53°32' E 009°54'0 0.1
2018-Feb-22 01:00N 53°32' E 009°54'1 2.0
2018-Feb-22 00:30N 53°33' E 009°53'3 5.6
2018-Feb-22 00:01N 53°31' E 009°56'0 0.1
2018-Feb-21 23:29N 53°31' E 009°56'0 0.0
2018-Feb-21 22:59N 53°31' E 009°56'0 0.0
2018-Feb-21 22:29N 53°31' E 009°56'0 0.0
2018-Feb-21 21:59N 53°31' E 009°56'0 0.0
2018-Feb-21 21:29N 53°31' E 009°56'0 0.9
2018-Feb-21 21:00N 53°31' E 009°56'1 1.4
2018-Feb-21 20:28N 53°32' E 009°56'0 0.0
2018-Feb-21 19:58N 53°32' E 009°56'0 0.0
2018-Feb-21 19:28N 53°32' E 009°56'0 0.0
2018-Feb-21 18:58N 53°32' E 009°56'0 0.0
2018-Feb-21 18:28N 53°32' E 009°56'0 0.0
2018-Feb-21 17:58N 53°32' E 009°56'0 0.0
2018-Feb-21 17:28N 53°32' E 009°56'0 0.0
2018-Feb-21 16:58N 53°32' E 009°56'0 0.0
2018-Feb-21 16:28N 53°32' E 009°56'0 0.0
2018-Feb-21 15:58N 53°32' E 009°56'0 0.0
2018-Feb-21 15:28N 53°32' E 009°56'0 0.0
2018-Feb-21 14:58N 53°32' E 009°56'0 0.0
2018-Feb-21 14:28N 53°32' E 009°56'0 0.0
2018-Feb-21 13:58N 53°32' E 009°56'0 0.0
2018-Feb-21 13:28N 53°32' E 009°56'0 0.0
2018-Feb-21 12:58N 53°32' E 009°56'0 0.0
2018-Feb-21 12:28N 53°32' E 009°56'0 0.0
2018-Feb-21 11:58N 53°32' E 009°56'0 0.0
2018-Feb-21 11:28N 53°32' E 009°56'0 0.0
2018-Feb-21 10:58N 53°32' E 009°56'0 0.0
2018-Feb-21 10:28N 53°32' E 009°56'0 0.0
2018-Feb-21 09:58N 53°32' E 009°56'0 0.0
2018-Feb-21 09:28N 53°32' E 009°56'0 0.0
2018-Feb-21 08:58N 53°32' E 009°56'0 0.0
2018-Feb-21 08:28N 53°32' E 009°56'0 0.0
2018-Feb-21 07:58N 53°32' E 009°56'0 0.0
2018-Feb-21 07:28N 53°32' E 009°56'0 0.0
2018-Feb-21 06:58N 53°32' E 009°56'0 0.0
2018-Feb-21 06:28N 53°32' E 009°56'0 0.0
2018-Feb-21 05:58N 53°32' E 009°56'0 0.0
2018-Feb-21 05:28N 53°32' E 009°56'0 0.0
2018-Feb-21 04:58N 53°32' E 009°56'0 0.0
2018-Feb-21 04:28N 53°32' E 009°56'0 0.0
2018-Feb-21 03:58N 53°32' E 009°56'0 0.0
2018-Feb-21 03:28N 53°32' E 009°56'0 0.0
2018-Feb-21 03:00N 53°32' E 009°56'2 3.3
2018-Feb-21 02:31N 53°33' E 009°53'511.0
2018-Feb-21 02:01N 53°34' E 009°44'611.6
2018-Feb-21 01:31N 53°36' E 009°35'612.4
2018-Feb-21 01:00N 53°41' E 009°30'611.7
2018-Feb-21 00:30N 53°46' E 009°24'713.0
2018-Feb-21 00:00N 53°52' E 009°18'612.2
2018-Feb-20 23:31N 53°53' E 009°08'1 1.7
2018-Feb-20 23:00N 53°54' E 009°09'0 0.1
2018-Feb-20 22:30N 53°54' E 009°09'2 3.5
2018-Feb-20 22:00N 53°55' E 009°11'4 8.4
2018-Feb-20 21:30N 53°58' E 009°16'4 8.2
2018-Feb-20 21:01N 54°02' E 009°18'4 7.9
2018-Feb-20 20:30N 54°06' E 009°20'3 6.9
2018-Feb-20 20:01N 54°09' E 009°22'2 4.0
2018-Feb-20 19:31N 54°10' E 009°25'4 8.3
2018-Feb-20 19:00N 54°11' E 009°31'1 2.1
2018-Feb-20 18:30N 54°12' E 009°33'0 0.4
2018-Feb-20 18:01N 54°12' E 009°33'3 6.5
2018-Feb-20 17:31N 54°15' E 009°37'1 2.3
2018-Feb-20 17:01N 54°16' E 009°37'3 6.2
2018-Feb-20 16:31N 54°18' E 009°41'4 7.7
2018-Feb-20 16:01N 54°21' E 009°45'20 2.2
2018-Feb-20 06:54N 54°30' E 010°17'3 0.6
2018-Feb-20 01:49N 54°33' E 010°18'0 0.0
2018-Feb-20 01:28N 54°33' E 010°18'0 0.0
2018-Feb-20 00:55N 54°33' E 010°18'0 0.0
2018-Feb-20 00:25N 54°33' E 010°18'0 0.0
2018-Feb-19 23:58N 54°33' E 010°18'0 0.0
2018-Feb-19 22:31N 54°33' E 010°18'0 0.0
2018-Feb-19 21:22N 54°33' E 010°18'0 0.0
2018-Feb-19 20:58N 54°33' E 010°18'0 0.0
2018-Feb-19 20:16N 54°33' E 010°18'0 0.0
2018-Feb-19 19:55N 54°33' E 010°18'0 0.0
2018-Feb-19 19:16N 54°33' E 010°18'0 0.0
2018-Feb-19 17:10N 54°33' E 010°18'0 0.0
2018-Feb-19 16:28N 54°33' E 010°18'0 0.0
2018-Feb-19 15:49N 54°33' E 010°18'0 0.0
2018-Feb-19 14:40N 54°33' E 010°18'0 0.0
2018-Feb-19 14:19N 54°33' E 010°18'0 0.0
2018-Feb-19 13:04N 54°33' E 010°18'0 0.0
2018-Feb-19 12:52N 54°33' E 010°18'0 0.0
2018-Feb-19 12:25N 54°33' E 010°18'0 0.0
2018-Feb-19 11:49N 54°33' E 010°18'0 0.2
2018-Feb-19 11:25N 54°32' E 010°18'1 1.9
2018-Feb-19 11:00N 54°33' E 010°19'612.9
2018-Feb-19 10:31N 54°34' E 010°30'815.1
2018-Feb-19 10:00N 54°35' E 010°43'815.1
2018-Feb-19 09:30N 54°36' E 010°56'816.1
2018-Feb-19 09:00N 54°36' E 011°10'714.3
2018-Feb-19 08:30N 54°33' E 011°21'815.7
2018-Feb-19 08:00N 54°30' E 011°34'815.6
2018-Feb-19 07:30N 54°27' E 011°46'815.7
2018-Feb-19 07:00N 54°26' E 011°60'7514.6
2018-Feb-19 01:53N 55°02' E 013°53'615.2
2018-Feb-19 01:30N 55°04' E 014°03'815.1
2018-Feb-19 00:59N 55°10' E 014°12'715.2
2018-Feb-19 00:30N 55°15' E 014°20'815.2
2018-Feb-18 23:57N 55°23' E 014°28'815.2
2018-Feb-18 23:27N 55°28' E 014°37'715.4
2018-Feb-18 23:00N 55°31' E 014°48'815.4
2018-Feb-18 22:30N 55°35' E 014°60'815.4
2018-Feb-18 22:00N 55°39' E 015°12'815.5
2018-Feb-18 21:30N 55°42' E 015°24'815.5
2018-Feb-18 21:00N 55°46' E 015°36'815.7
2018-Feb-18 20:30N 55°50' E 015°48'815.9
2018-Feb-18 20:00N 55°54' E 016°01'815.5
2018-Feb-18 19:30N 55°57' E 016°13'815.3
2018-Feb-18 19:00N 56°01' E 016°25'815.2
2018-Feb-18 18:30N 56°05' E 016°36'815.1
2018-Feb-18 18:00N 56°10' E 016°47'815.1
2018-Feb-18 17:30N 56°17' E 016°53'1115.4
2018-Feb-18 16:46N 56°27' E 016°59'18615.5
2018-Feb-18 04:47N 59°13' E 019°38'2914.3
2018-Feb-18 02:45N 59°42' E 019°50'415.5
2018-Feb-18 02:30N 59°44' E 019°45'815.8
2018-Feb-18 02:00N 59°50' E 019°34'815.8
2018-Feb-18 01:30N 59°56' E 019°24'815.9
2018-Feb-18 01:00N 60°02' E 019°14'816.1
2018-Feb-18 00:30N 60°08' E 019°04'815.3
2018-Feb-18 00:00N 60°16' E 019°01'815.8
2018-Feb-17 23:30N 60°23' E 019°00'7215.0
2018-Feb-17 18:43N 61°09' E 020°54'315.7
2018-Feb-17 18:30N 61°09' E 021°01'713.8
2018-Feb-17 18:00N 61°07' E 021°14'4 8.4
2018-Feb-17 17:30N 61°06' E 021°22'2 4.2
2018-Feb-17 17:00N 61°08' E 021°26'0 0.0
2018-Feb-17 16:30N 61°08' E 021°26'0 0.0
2018-Feb-17 16:00N 61°08' E 021°26'0 0.0
2018-Feb-17 15:30N 61°08' E 021°26'0 0.0
2018-Feb-17 15:00N 61°08' E 021°26'0 0.0
2018-Feb-17 14:30N 61°08' E 021°26'0 0.0
2018-Feb-17 14:00N 61°08' E 021°26'0 0.0
2018-Feb-17 13:30N 61°08' E 021°26'0 0.0
2018-Feb-17 13:00N 61°08' E 021°26'0 0.0
2018-Feb-17 12:30N 61°08' E 021°26'0 0.0
2018-Feb-17 12:00N 61°08' E 021°26'0 0.0
2018-Feb-17 11:30N 61°08' E 021°26'0 0.0
2018-Feb-17 11:00N 61°08' E 021°26'0 0.0
2018-Feb-17 10:30N 61°08' E 021°26'0 0.0
2018-Feb-17 10:00N 61°08' E 021°26'0 0.0
2018-Feb-17 09:30N 61°08' E 021°26'0 0.0
2018-Feb-17 09:00N 61°08' E 021°26'0 0.0
2018-Feb-17 08:30N 61°08' E 021°26'0 0.0
2018-Feb-17 08:00N 61°08' E 021°26'0 0.0
2018-Feb-17 07:30N 61°08' E 021°26'0 0.0
2018-Feb-17 07:00N 61°08' E 021°26'0 0.0
2018-Feb-17 06:30N 61°08' E 021°26'0 0.0
2018-Feb-17 06:00N 61°08' E 021°26'0 0.0
2018-Feb-17 05:30N 61°08' E 021°26'0 0.1
2018-Feb-17 05:00N 61°08' E 021°26'2 4.3
2018-Feb-17 04:30N 61°06' E 021°22'612.5
2018-Feb-17 04:00N 61°07' E 021°10'611.3
2018-Feb-17 03:31N 61°09' E 020°58'7112.7
2018-Feb-16 21:53N 60°26' E 019°02'513.4
2018-Feb-16 21:30N 60°21' E 019°01'612.9
2018-Feb-16 21:00N 60°14' E 019°04'713.4
2018-Feb-16 20:31N 60°09' E 019°12'713.5
2018-Feb-16 20:00N 60°04' E 019°21'713.5
2018-Feb-16 19:30N 59°58' E 019°29'5212.4
2018-Feb-16 15:19N 59°33' E 020°59'413.5
2018-Feb-16 15:00N 59°33' E 021°08'713.4
2018-Feb-16 14:30N 59°33' E 021°21'713.3
2018-Feb-16 14:00N 59°33' E 021°34'713.2
2018-Feb-16 13:29N 59°32' E 021°48'2613.2
2018-Feb-16 11:30N 59°33' E 022°39'713.5
2018-Feb-16 11:00N 59°34' E 022°52'713.7
2018-Feb-16 10:31N 59°36' E 023°05'713.3
2018-Feb-16 10:00N 59°38' E 023°18'713.3
2018-Feb-16 09:31N 59°39' E 023°30'713.0
2018-Feb-16 09:01N 59°41' E 023°43'713.6
2018-Feb-16 08:30N 59°43' E 023°56'713.5
2018-Feb-16 08:01N 59°45' E 024°08'713.4
2018-Feb-16 07:29N 59°47' E 024°22'714.1
2018-Feb-16 07:00N 59°48' E 024°35'714.2
2018-Feb-16 06:30N 59°50' E 024°49'813.8
2018-Feb-16 05:58N 59°51' E 025°03'613.7
2018-Feb-16 05:31N 59°52' E 025°16'913.9
2018-Feb-16 04:53N 59°54' E 025°33'514.1
2018-Feb-16 04:30N 59°55' E 025°43'1514.7
2018-Feb-16 03:28N 59°59' E 026°13'612.5
2018-Feb-16 02:57N 60°00' E 026°25'613.6
2018-Feb-16 02:30N 60°01' E 026°37'713.8
2018-Feb-16 02:01N 60°00' E 026°51'1015.5
2018-Feb-16 01:20N 60°02' E 027°11'4 9.9
2018-Feb-16 00:57N 60°04' E 027°18'613.2
2018-Feb-16 00:30N 60°07' E 027°28'611.0
2018-Feb-16 00:00N 60°10' E 027°38'510.6
2018-Feb-15 23:30N 60°11' E 027°48'510.6
2018-Feb-15 23:00N 60°11' E 027°58'510.2
2018-Feb-15 22:30N 60°09' E 028°08'511.0
2018-Feb-15 22:00N 60°07' E 028°19'612.1
2018-Feb-15 21:30N 60°04' E 028°29'612.4
2018-Feb-15 21:00N 60°03' E 028°41'714.2
2018-Feb-15 20:31N 60°03' E 028°55'1713.0
2018-Feb-15 19:12N 60°02' E 029°29'2 6.2
2018-Feb-15 18:57N 60°01' E 029°32'511.2
2018-Feb-15 18:29N 59°59' E 029°42'5 9.8
2018-Feb-15 18:00N 59°57' E 029°50'611.2
2018-Feb-15 17:30N 59°55' E 030°01'5 9.5
2018-Feb-15 17:00N 59°53' E 030°09'2 3.2
2018-Feb-15 16:30N 59°53' E 030°12'0 0.2
2018-Feb-15 15:58N 59°52' E 030°12'0 0.0
2018-Feb-15 15:28N 59°52' E 030°12'0 0.0
2018-Feb-15 14:58N 59°52' E 030°12'0 0.0
2018-Feb-15 14:28N 59°52' E 030°12'0 0.0
2018-Feb-15 13:58N 59°52' E 030°12'0 0.0
2018-Feb-15 13:28N 59°52' E 030°12'0 0.0
2018-Feb-15 12:58N 59°52' E 030°12'0 0.0
2018-Feb-15 12:25N 59°52' E 030°12'0 0.0
2018-Feb-15 11:58N 59°52' E 030°12'0 0.0
2018-Feb-15 11:28N 59°52' E 030°12'0 0.0
2018-Feb-15 10:55N 59°52' E 030°12'0 0.0
2018-Feb-15 10:25N 59°52' E 030°12'0 0.0
2018-Feb-15 09:58N 59°52' E 030°12'0 0.0
2018-Feb-15 09:25N 59°52' E 030°12'0 0.0
2018-Feb-15 08:55N 59°52' E 030°12'0 0.0
2018-Feb-15 08:25N 59°52' E 030°12'0 0.0
2018-Feb-15 07:58N 59°52' E 030°12'0 0.0
2018-Feb-15 07:28N 59°52' E 030°12'0 0.0
2018-Feb-15 06:58N 59°52' E 030°12'0 0.0
2018-Feb-15 06:25N 59°52' E 030°12'0 0.0
2018-Feb-15 05:58N 59°52' E 030°12'0 0.0
2018-Feb-15 05:28N 59°52' E 030°12'0 0.0
2018-Feb-15 04:58N 59°52' E 030°12'0 0.0
2018-Feb-15 04:28N 59°52' E 030°12'0 0.0
2018-Feb-15 03:52N 59°52' E 030°12'0 0.0
2018-Feb-15 03:30N 59°52' E 030°12'0 0.0
2018-Feb-15 02:59N 59°52' E 030°12'0 0.0
2018-Feb-15 02:31N 59°52' E 030°12'1 1.0
2018-Feb-15 02:00N 59°53' E 030°11'3 5.8
2018-Feb-15 01:30N 59°54' E 030°06'611.0
2018-Feb-15 01:00N 59°56' E 029°56'510.8
2018-Feb-15 00:30N 59°59' E 029°46'2 4.3
2018-Feb-15 00:00N 59°57' E 029°44'1 0.6
2018-Feb-14 22:12N 59°56' E 029°42'0 0.0
2018-Feb-14 21:51N 59°56' E 029°42'0 0.0
2018-Feb-14 21:30N 59°56' E 029°42'0 0.0
2018-Feb-14 17:00N 59°56' E 029°42'0 0.0
2018-Feb-14 16:06N 59°56' E 029°42'0 0.0
2018-Feb-14 15:48N 59°56' E 029°42'0 0.0
2018-Feb-14 15:30N 59°56' E 029°42'0 0.0
2018-Feb-14 15:00N 59°56' E 029°42'0 0.0
2018-Feb-14 14:30N 59°56' E 029°42'0 0.0
2018-Feb-14 14:00N 59°56' E 029°42'0 0.1
2018-Feb-14 13:30N 59°56' E 029°42'3 5.1
2018-Feb-14 12:56N 59°59' E 029°44'10 9.8
2018-Feb-14 11:53N 60°01' E 029°24'2 4.3
2018-Feb-14 11:19N 60°02' E 029°19'2 5.3
2018-Feb-14 10:59N 60°02' E 029°16'3 7.0
2018-Feb-14 10:30N 60°02' E 029°09'5 9.4
2018-Feb-14 10:00N 60°02' E 028°60'612.4
2018-Feb-14 09:30N 60°02' E 028°48'613.0
2018-Feb-14 09:00N 60°02' E 028°35'714.6
2018-Feb-14 08:31N 60°05' E 028°21'713.8
2018-Feb-14 08:00N 60°08' E 028°09'714.0
2018-Feb-14 07:30N 60°10' E 027°55'713.3
2018-Feb-14 07:00N 60°09' E 027°42'715.0
2018-Feb-14 06:30N 60°05' E 027°29'815.7
2018-Feb-14 06:00N 60°01' E 027°15'815.3
2018-Feb-14 05:30N 59°58' E 027°01'815.4
2018-Feb-14 05:00N 59°59' E 026°46'815.4
2018-Feb-14 04:30N 59°58' E 026°31'815.6
2018-Feb-14 04:00N 59°56' E 026°16'1315.6
2018-Feb-14 03:11N 59°53' E 025°51'315.4
2018-Feb-14 03:00N 59°52' E 025°46'815.7
2018-Feb-14 02:30N 59°50' E 025°31'815.8
2018-Feb-14 02:00N 59°49' E 025°15'815.7
2018-Feb-14 01:31N 59°47' E 025°00'815.6
2018-Feb-14 01:01N 59°46' E 024°45'815.9
2018-Feb-14 00:30N 59°44' E 024°30'815.3
2018-Feb-14 00:00N 59°41' E 024°15'815.2
2018-Feb-13 23:30N 59°39' E 024°01'815.6
2018-Feb-13 23:00N 59°37' E 023°46'816.0
2018-Feb-13 22:30N 59°34' E 023°31'815.8
2018-Feb-13 22:00N 59°32' E 023°16'28515.7
2018-Feb-13 03:48N 56°09' E 016°59'516.1
2018-Feb-13 03:30N 56°06' E 016°53'816.3
2018-Feb-13 03:00N 56°01' E 016°41'816.2
2018-Feb-13 02:30N 55°57' E 016°29'816.1
2018-Feb-13 02:00N 55°53' E 016°16'816.2
2018-Feb-13 01:30N 55°49' E 016°03'816.3
2018-Feb-13 01:00N 55°46' E 015°51'816.3
2018-Feb-13 00:30N 55°42' E 015°38'816.4
2018-Feb-13 00:00N 55°38' E 015°25'816.3
2018-Feb-12 23:30N 55°34' E 015°12'816.3
2018-Feb-12 23:00N 55°30' E 014°60'816.2
2018-Feb-12 22:30N 55°26' E 014°47'815.7
2018-Feb-12 22:00N 55°21' E 014°36'816.0
2018-Feb-12 21:30N 55°15' E 014°27'815.9
2018-Feb-12 21:00N 55°09' E 014°19'1016.1
2018-Feb-12 20:24N 55°01' E 014°08'1615.9
2018-Feb-12 19:23N 54°56' E 013°41'4216.1
2018-Feb-12 16:47N 54°41' E 012°34'416.0
2018-Feb-12 16:30N 54°38' E 012°27'815.2
2018-Feb-12 15:59N 54°33' E 012°17'715.3
2018-Feb-12 15:30N 54°26' E 012°12'  
Track history (hours):
 
Tides and Currents Weather Stations Pressure Air Temp Water Temp Dewpoint Dewpoint Depression Visibility Wind Speed Wind Dir Waves Ship Positions

Meera

Last reported at 2018-Feb-22 14:58 UTC. Time now 2018-Feb-22 15:20 UTC.
Position N 53°32' E 009°57'.

Length 140 m; draft 7.3 m.

Type: Ship (hazmat cat A). MMSI: 305643000.

Date/timePositionNaut miles runAvg speedWind from/ knotsBaromVisibWave heightAir tempDewpointWater temp
2018-Feb-22 14:58N 53°32' E 009°57'0 0.0
2018-Feb-22 14:28N 53°32' E 009°57'0 0.0
2018-Feb-22 14:00N 53°32' E 009°57'1 1.3
2018-Feb-22 13:31N 53°32' E 009°56'2 3.2
2018-Feb-22 12:58N 53°32' E 009°54'0 0.0
2018-Feb-22 12:28N 53°32' E 009°54'0 0.0
2018-Feb-22 11:58N 53°32' E 009°54'0 0.0
2018-Feb-22 11:28N 53°32' E 009°54'0 0.0
2018-Feb-22 10:58N 53°32' E 009°54'0 0.0
2018-Feb-22 10:28N 53°32' E 009°54'0 0.0
2018-Feb-22 09:58N 53°32' E 009°54'0 0.0
2018-Feb-22 09:28N 53°32' E 009°54'0 0.0
2018-Feb-22 08:58N 53°32' E 009°54'0 0.0
2018-Feb-22 08:28N 53°32' E 009°54'0 0.0
2018-Feb-22 07:58N 53°32' E 009°54'0 0.0
2018-Feb-22 07:28N 53°32' E 009°54'0 0.0
2018-Feb-22 06:58N 53°32' E 009°54'0 0.0
2018-Feb-22 06:28N 53°32' E 009°54'0 0.0
2018-Feb-22 05:58N 53°32' E 009°54'0 0.0
2018-Feb-22 05:28N 53°32' E 009°54'0 0.0
2018-Feb-22 04:58N 53°32' E 009°54'0 0.0
2018-Feb-22 04:28N 53°32' E 009°54'0 0.0
2018-Feb-22 03:58N 53°32' E 009°54'0 0.0
2018-Feb-22 03:28N 53°32' E 009°54'0 0.0
2018-Feb-22 02:58N 53°32' E 009°54'0 0.0
2018-Feb-22 02:28N 53°32' E 009°54'0 0.0
2018-Feb-22 01:59N 53°32' E 009°54'0 0.0
2018-Feb-22 01:30N 53°32' E 009°54'0 0.1
2018-Feb-22 01:00N 53°32' E 009°54'1 2.0
2018-Feb-22 00:30N 53°33' E 009°53'3 5.6
2018-Feb-22 00:01N 53°31' E 009°56'0 0.1
2018-Feb-21 23:29N 53°31' E 009°56'0 0.0
2018-Feb-21 22:59N 53°31' E 009°56'0 0.0
2018-Feb-21 22:29N 53°31' E 009°56'0 0.0
2018-Feb-21 21:59N 53°31' E 009°56'0 0.0
2018-Feb-21 21:29N 53°31' E 009°56'0 0.9
2018-Feb-21 21:00N 53°31' E 009°56'1 1.4
2018-Feb-21 20:28N 53°32' E 009°56'0 0.0
2018-Feb-21 19:58N 53°32' E 009°56'0 0.0
2018-Feb-21 19:28N 53°32' E 009°56'0 0.0
2018-Feb-21 18:58N 53°32' E 009°56'0 0.0
2018-Feb-21 18:28N 53°32' E 009°56'0 0.0
2018-Feb-21 17:58N 53°32' E 009°56'0 0.0
2018-Feb-21 17:28N 53°32' E 009°56'0 0.0
2018-Feb-21 16:58N 53°32' E 009°56'0 0.0
2018-Feb-21 16:28N 53°32' E 009°56'0 0.0
2018-Feb-21 15:58N 53°32' E 009°56'0 0.0
2018-Feb-21 15:28N 53°32' E 009°56'0 0.0
2018-Feb-21 14:58N 53°32' E 009°56'0 0.0
2018-Feb-21 14:28N 53°32' E 009°56'0 0.0
2018-Feb-21 13:58N 53°32' E 009°56'0 0.0
2018-Feb-21 13:28N 53°32' E 009°56'0 0.0
2018-Feb-21 12:58N 53°32' E 009°56'0 0.0
2018-Feb-21 12:28N 53°32' E 009°56'0 0.0
2018-Feb-21 11:58N 53°32' E 009°56'0 0.0
2018-Feb-21 11:28N 53°32' E 009°56'0 0.0
2018-Feb-21 10:58N 53°32' E 009°56'0 0.0
2018-Feb-21 10:28N 53°32' E 009°56'0 0.0
2018-Feb-21 09:58N 53°32' E 009°56'0 0.0
2018-Feb-21 09:28N 53°32' E 009°56'0 0.0
2018-Feb-21 08:58N 53°32' E 009°56'0 0.0
2018-Feb-21 08:28N 53°32' E 009°56'0 0.0
2018-Feb-21 07:58N 53°32' E 009°56'0 0.0
2018-Feb-21 07:28N 53°32' E 009°56'0 0.0
2018-Feb-21 06:58N 53°32' E 009°56'0 0.0
2018-Feb-21 06:28N 53°32' E 009°56'0 0.0
2018-Feb-21 05:58N 53°32' E 009°56'0 0.0
2018-Feb-21 05:28N 53°32' E 009°56'0 0.0
2018-Feb-21 04:58N 53°32' E 009°56'0 0.0
2018-Feb-21 04:28N 53°32' E 009°56'0 0.0
2018-Feb-21 03:58N 53°32' E 009°56'0 0.0
2018-Feb-21 03:28N 53°32' E 009°56'0 0.0
2018-Feb-21 03:00N 53°32' E 009°56'2 3.3
2018-Feb-21 02:31N 53°33' E 009°53'511.0
2018-Feb-21 02:01N 53°34' E 009°44'611.6
2018-Feb-21 01:31N 53°36' E 009°35'612.4
2018-Feb-21 01:00N 53°41' E 009°30'611.7
2018-Feb-21 00:30N 53°46' E 009°24'713.0
2018-Feb-21 00:00N 53°52' E 009°18'612.2
2018-Feb-20 23:31N 53°53' E 009°08'1 1.7
2018-Feb-20 23:00N 53°54' E 009°09'0 0.1
2018-Feb-20 22:30N 53°54' E 009°09'2 3.5
2018-Feb-20 22:00N 53°55' E 009°11'4 8.4
2018-Feb-20 21:30N 53°58' E 009°16'4 8.2
2018-Feb-20 21:01N 54°02' E 009°18'4 7.9
2018-Feb-20 20:30N 54°06' E 009°20'3 6.9
2018-Feb-20 20:01N 54°09' E 009°22'2 4.0
2018-Feb-20 19:31N 54°10' E 009°25'4 8.3
2018-Feb-20 19:00N 54°11' E 009°31'1 2.1
2018-Feb-20 18:30N 54°12' E 009°33'0 0.4
2018-Feb-20 18:01N 54°12' E 009°33'3 6.5
2018-Feb-20 17:31N 54°15' E 009°37'1 2.3
2018-Feb-20 17:01N 54°16' E 009°37'3 6.2
2018-Feb-20 16:31N 54°18' E 009°41'4 7.7
2018-Feb-20 16:01N 54°21' E 009°45'20 2.2
2018-Feb-20 06:54N 54°30' E 010°17'3 0.6
2018-Feb-20 01:49N 54°33' E 010°18'0 0.0
2018-Feb-20 01:28N 54°33' E 010°18'0 0.0
2018-Feb-20 00:55N 54°33' E 010°18'0 0.0
2018-Feb-20 00:25N 54°33' E 010°18'0 0.0
2018-Feb-19 23:58N 54°33' E 010°18'0 0.0
2018-Feb-19 22:31N 54°33' E 010°18'0 0.0
2018-Feb-19 21:22N 54°33' E 010°18'0 0.0
2018-Feb-19 20:58N 54°33' E 010°18'0 0.0
2018-Feb-19 20:16N 54°33' E 010°18'0 0.0
2018-Feb-19 19:55N 54°33' E 010°18'0 0.0
2018-Feb-19 19:16N 54°33' E 010°18'0 0.0
2018-Feb-19 17:10N 54°33' E 010°18'0 0.0
2018-Feb-19 16:28N 54°33' E 010°18'0 0.0
2018-Feb-19 15:49N 54°33' E 010°18'0 0.0
2018-Feb-19 14:40N 54°33' E 010°18'0 0.0
2018-Feb-19 14:19N 54°33' E 010°18'0 0.0
2018-Feb-19 13:04N 54°33' E 010°18'0 0.0
2018-Feb-19 12:52N 54°33' E 010°18'0 0.0
2018-Feb-19 12:25N 54°33' E 010°18'0 0.0
2018-Feb-19 11:49N 54°33' E 010°18'0 0.2
2018-Feb-19 11:25N 54°32' E 010°18'1 1.9
2018-Feb-19 11:00N 54°33' E 010°19'612.9
2018-Feb-19 10:31N 54°34' E 010°30'815.1
2018-Feb-19 10:00N 54°35' E 010°43'815.1
2018-Feb-19 09:30N 54°36' E 010°56'816.1
2018-Feb-19 09:00N 54°36' E 011°10'714.3
2018-Feb-19 08:30N 54°33' E 011°21'815.7
2018-Feb-19 08:00N 54°30' E 011°34'815.6
2018-Feb-19 07:30N 54°27' E 011°46'815.7
2018-Feb-19 07:00N 54°26' E 011°60'7514.6
2018-Feb-19 01:53N 55°02' E 013°53'615.2
2018-Feb-19 01:30N 55°04' E 014°03'815.1
2018-Feb-19 00:59N 55°10' E 014°12'715.2
2018-Feb-19 00:30N 55°15' E 014°20'815.2
2018-Feb-18 23:57N 55°23' E 014°28'815.2
2018-Feb-18 23:27N 55°28' E 014°37'715.4
2018-Feb-18 23:00N 55°31' E 014°48'815.4
2018-Feb-18 22:30N 55°35' E 014°60'815.4
2018-Feb-18 22:00N 55°39' E 015°12'815.5
2018-Feb-18 21:30N 55°42' E 015°24'815.5
2018-Feb-18 21:00N 55°46' E 015°36'815.7
2018-Feb-18 20:30N 55°50' E 015°48'815.9
2018-Feb-18 20:00N 55°54' E 016°01'815.5
2018-Feb-18 19:30N 55°57' E 016°13'815.3
2018-Feb-18 19:00N 56°01' E 016°25'815.2
2018-Feb-18 18:30N 56°05' E 016°36'815.1
2018-Feb-18 18:00N 56°10' E 016°47'815.1
2018-Feb-18 17:30N 56°17' E 016°53'1115.4
2018-Feb-18 16:46N 56°27' E 016°59'18615.5
2018-Feb-18 04:47N 59°13' E 019°38'2914.3
2018-Feb-18 02:45N 59°42' E 019°50'415.5
2018-Feb-18 02:30N 59°44' E 019°45'815.8
2018-Feb-18 02:00N 59°50' E 019°34'815.8
2018-Feb-18 01:30N 59°56' E 019°24'815.9
2018-Feb-18 01:00N 60°02' E 019°14'816.1
2018-Feb-18 00:30N 60°08' E 019°04'815.3
2018-Feb-18 00:00N 60°16' E 019°01'815.8
2018-Feb-17 23:30N 60°23' E 019°00'7215.0
2018-Feb-17 18:43N 61°09' E 020°54'315.7
2018-Feb-17 18:30N 61°09' E 021°01'713.8
2018-Feb-17 18:00N 61°07' E 021°14'4 8.4
2018-Feb-17 17:30N 61°06' E 021°22'2 4.2
2018-Feb-17 17:00N 61°08' E 021°26'0 0.0
2018-Feb-17 16:30N 61°08' E 021°26'0 0.0
2018-Feb-17 16:00N 61°08' E 021°26'0 0.0
2018-Feb-17 15:30N 61°08' E 021°26'0 0.0
2018-Feb-17 15:00N 61°08' E 021°26'0 0.0
2018-Feb-17 14:30N 61°08' E 021°26'0 0.0
2018-Feb-17 14:00N 61°08' E 021°26'0 0.0
2018-Feb-17 13:30N 61°08' E 021°26'0 0.0
2018-Feb-17 13:00N 61°08' E 021°26'0 0.0
2018-Feb-17 12:30N 61°08' E 021°26'0 0.0
2018-Feb-17 12:00N 61°08' E 021°26'0 0.0
2018-Feb-17 11:30N 61°08' E 021°26'0 0.0
2018-Feb-17 11:00N 61°08' E 021°26'0 0.0
2018-Feb-17 10:30N 61°08' E 021°26'0 0.0
2018-Feb-17 10:00N 61°08' E 021°26'0 0.0
2018-Feb-17 09:30N 61°08' E 021°26'0 0.0
2018-Feb-17 09:00N 61°08' E 021°26'0 0.0
2018-Feb-17 08:30N 61°08' E 021°26'0 0.0
2018-Feb-17 08:00N 61°08' E 021°26'0 0.0
2018-Feb-17 07:30N 61°08' E 021°26'0 0.0
2018-Feb-17 07:00N 61°08' E 021°26'0 0.0
2018-Feb-17 06:30N 61°08' E 021°26'0 0.0
2018-Feb-17 06:00N 61°08' E 021°26'0 0.0
2018-Feb-17 05:30N 61°08' E 021°26'0 0.1
2018-Feb-17 05:00N 61°08' E 021°26'2 4.3
2018-Feb-17 04:30N 61°06' E 021°22'612.5
2018-Feb-17 04:00N 61°07' E 021°10'611.3
2018-Feb-17 03:31N 61°09' E 020°58'7112.7
2018-Feb-16 21:53N 60°26' E 019°02'513.4
2018-Feb-16 21:30N 60°21' E 019°01'612.9
2018-Feb-16 21:00N 60°14' E 019°04'713.4
2018-Feb-16 20:31N 60°09' E 019°12'713.5
2018-Feb-16 20:00N 60°04' E 019°21'713.5
2018-Feb-16 19:30N 59°58' E 019°29'5212.4
2018-Feb-16 15:19N 59°33' E 020°59'413.5
2018-Feb-16 15:00N 59°33' E 021°08'713.4
2018-Feb-16 14:30N 59°33' E 021°21'713.3
2018-Feb-16 14:00N 59°33' E 021°34'713.2
2018-Feb-16 13:29N 59°32' E 021°48'2613.2
2018-Feb-16 11:30N 59°33' E 022°39'713.5
2018-Feb-16 11:00N 59°34' E 022°52'713.7
2018-Feb-16 10:31N 59°36' E 023°05'713.3
2018-Feb-16 10:00N 59°38' E 023°18'713.3
2018-Feb-16 09:31N 59°39' E 023°30'713.0
2018-Feb-16 09:01N 59°41' E 023°43'713.6
2018-Feb-16 08:30N 59°43' E 023°56'713.5
2018-Feb-16 08:01N 59°45' E 024°08'713.4
2018-Feb-16 07:29N 59°47' E 024°22'714.1
2018-Feb-16 07:00N 59°48' E 024°35'714.2
2018-Feb-16 06:30N 59°50' E 024°49'813.8
2018-Feb-16 05:58N 59°51' E 025°03'613.7
2018-Feb-16 05:31N 59°52' E 025°16'913.9
2018-Feb-16 04:53N 59°54' E 025°33'514.1
2018-Feb-16 04:30N 59°55' E 025°43'1514.7
2018-Feb-16 03:28N 59°59' E 026°13'612.5
2018-Feb-16 02:57N 60°00' E 026°25'613.6
2018-Feb-16 02:30N 60°01' E 026°37'713.8
2018-Feb-16 02:01N 60°00' E 026°51'1015.5
2018-Feb-16 01:20N 60°02' E 027°11'4 9.9
2018-Feb-16 00:57N 60°04' E 027°18'613.2
2018-Feb-16 00:30N 60°07' E 027°28'611.0
2018-Feb-16 00:00N 60°10' E 027°38'510.6
2018-Feb-15 23:30N 60°11' E 027°48'510.6
2018-Feb-15 23:00N 60°11' E 027°58'510.2
2018-Feb-15 22:30N 60°09' E 028°08'511.0
2018-Feb-15 22:00N 60°07' E 028°19'612.1
2018-Feb-15 21:30N 60°04' E 028°29'612.4
2018-Feb-15 21:00N 60°03' E 028°41'714.2
2018-Feb-15 20:31N 60°03' E 028°55'1713.0
2018-Feb-15 19:12N 60°02' E 029°29'2 6.2
2018-Feb-15 18:57N 60°01' E 029°32'511.2
2018-Feb-15 18:29N 59°59' E 029°42'5 9.8
2018-Feb-15 18:00N 59°57' E 029°50'611.2
2018-Feb-15 17:30N 59°55' E 030°01'5 9.5
2018-Feb-15 17:00N 59°53' E 030°09'2 3.2
2018-Feb-15 16:30N 59°53' E 030°12'0 0.2
2018-Feb-15 15:58N 59°52' E 030°12'0 0.0
2018-Feb-15 15:28N 59°52' E 030°12'0 0.0
2018-Feb-15 14:58N 59°52' E 030°12'0 0.0
2018-Feb-15 14:28N 59°52' E 030°12'0 0.0
2018-Feb-15 13:58N 59°52' E 030°12'0 0.0
2018-Feb-15 13:28N 59°52' E 030°12'0 0.0
2018-Feb-15 12:58N 59°52' E 030°12'0 0.0
2018-Feb-15 12:25N 59°52' E 030°12'0 0.0
2018-Feb-15 11:58N 59°52' E 030°12'0 0.0
2018-Feb-15 11:28N 59°52' E 030°12'0 0.0
2018-Feb-15 10:55N 59°52' E 030°12'0 0.0
2018-Feb-15 10:25N 59°52' E 030°12'0 0.0
2018-Feb-15 09:58N 59°52' E 030°12'0 0.0
2018-Feb-15 09:25N 59°52' E 030°12'0 0.0
2018-Feb-15 08:55N 59°52' E 030°12'0 0.0
2018-Feb-15 08:25N 59°52' E 030°12'0 0.0
2018-Feb-15 07:58N 59°52' E 030°12'0 0.0
2018-Feb-15 07:28N 59°52' E 030°12'0 0.0
2018-Feb-15 06:58N 59°52' E 030°12'0 0.0
2018-Feb-15 06:25N 59°52' E 030°12'0 0.0
2018-Feb-15 05:58N 59°52' E 030°12'0 0.0
2018-Feb-15 05:28N 59°52' E 030°12'0 0.0
2018-Feb-15 04:58N 59°52' E 030°12'0 0.0
2018-Feb-15 04:28N 59°52' E 030°12'0 0.0
2018-Feb-15 03:52N 59°52' E 030°12'0 0.0
2018-Feb-15 03:30N 59°52' E 030°12'0 0.0
2018-Feb-15 02:59N 59°52' E 030°12'0 0.0
2018-Feb-15 02:31N 59°52' E 030°12'1 1.0
2018-Feb-15 02:00N 59°53' E 030°11'3 5.8
2018-Feb-15 01:30N 59°54' E 030°06'611.0
2018-Feb-15 01:00N 59°56' E 029°56'510.8
2018-Feb-15 00:30N 59°59' E 029°46'2 4.3
2018-Feb-15 00:00N 59°57' E 029°44'1 0.6
2018-Feb-14 22:12N 59°56' E 029°42'0 0.0
2018-Feb-14 21:51N 59°56' E 029°42'0 0.0
2018-Feb-14 21:30N 59°56' E 029°42'0 0.0
2018-Feb-14 17:00N 59°56' E 029°42'0 0.0
2018-Feb-14 16:06N 59°56' E 029°42'0 0.0
2018-Feb-14 15:48N 59°56' E 029°42'0 0.0
2018-Feb-14 15:30N 59°56' E 029°42'0 0.0
2018-Feb-14 15:00N 59°56' E 029°42'0 0.0
2018-Feb-14 14:30N 59°56' E 029°42'0 0.0
2018-Feb-14 14:00N 59°56' E 029°42'0 0.1
2018-Feb-14 13:30N 59°56' E 029°42'3 5.1
2018-Feb-14 12:56N 59°59' E 029°44'10 9.8
2018-Feb-14 11:53N 60°01' E 029°24'2 4.3
2018-Feb-14 11:19N 60°02' E 029°19'2 5.3
2018-Feb-14 10:59N 60°02' E 029°16'3 7.0
2018-Feb-14 10:30N 60°02' E 029°09'5 9.4
2018-Feb-14 10:00N 60°02' E 028°60'612.4
2018-Feb-14 09:30N 60°02' E 028°48'613.0
2018-Feb-14 09:00N 60°02' E 028°35'714.6
2018-Feb-14 08:31N 60°05' E 028°21'713.8
2018-Feb-14 08:00N 60°08' E 028°09'714.0
2018-Feb-14 07:30N 60°10' E 027°55'713.3
2018-Feb-14 07:00N 60°09' E 027°42'715.0
2018-Feb-14 06:30N 60°05' E 027°29'815.7
2018-Feb-14 06:00N 60°01' E 027°15'815.3
2018-Feb-14 05:30N 59°58' E 027°01'815.4
2018-Feb-14 05:00N 59°59' E 026°46'815.4
2018-Feb-14 04:30N 59°58' E 026°31'815.6
2018-Feb-14 04:00N 59°56' E 026°16'1315.6
2018-Feb-14 03:11N 59°53' E 025°51'315.4
2018-Feb-14 03:00N 59°52' E 025°46'815.7
2018-Feb-14 02:30N 59°50' E 025°31'815.8
2018-Feb-14 02:00N 59°49' E 025°15'815.7
2018-Feb-14 01:31N 59°47' E 025°00'815.6
2018-Feb-14 01:01N 59°46' E 024°45'815.9
2018-Feb-14 00:30N 59°44' E 024°30'815.3
2018-Feb-14 00:00N 59°41' E 024°15'815.2
2018-Feb-13 23:30N 59°39' E 024°01'815.6
2018-Feb-13 23:00N 59°37' E 023°46'816.0
2018-Feb-13 22:30N 59°34' E 023°31'815.8
2018-Feb-13 22:00N 59°32' E 023°16'28515.7
2018-Feb-13 03:48N 56°09' E 016°59'516.1
2018-Feb-13 03:30N 56°06' E 016°53'816.3
2018-Feb-13 03:00N 56°01' E 016°41'816.2
2018-Feb-13 02:30N 55°57' E 016°29'816.1
2018-Feb-13 02:00N 55°53' E 016°16'816.2
2018-Feb-13 01:30N 55°49' E 016°03'816.3
2018-Feb-13 01:00N 55°46' E 015°51'816.3
2018-Feb-13 00:30N 55°42' E 015°38'816.4
2018-Feb-13 00:00N 55°38' E 015°25'816.3
2018-Feb-12 23:30N 55°34' E 015°12'816.3
2018-Feb-12 23:00N 55°30' E 014°60'816.2
2018-Feb-12 22:30N 55°26' E 014°47'815.7
2018-Feb-12 22:00N 55°21' E 014°36'816.0
2018-Feb-12 21:30N 55°15' E 014°27'815.9
2018-Feb-12 21:00N 55°09' E 014°19'1016.1
2018-Feb-12 20:24N 55°01' E 014°08'1615.9
2018-Feb-12 19:23N 54°56' E 013°41'4216.1
2018-Feb-12 16:47N 54°41' E 012°34'416.0
2018-Feb-12 16:30N 54°38' E 012°27'815.2
2018-Feb-12 15:59N 54°33' E 012°17'715.3
2018-Feb-12 15:30N 54°26' E 012°12'  

Dump ship's entire track history